Time;durP1;ratioP1;P1;durP2;ratioP2;P2;SDS_P1;SDS_P2;PMS_P1;PMS_P2;Temp;Humidity;BMP_temperature;BMP_pressure;BME280_temperature;BME280_humidity;BME280_pressure;Samples;Min_cycle;Max_cycle;Signal;HPM_P1;HPM_P2
2022/05/09 00:01:15;;;;;;;1.77;1.50;;;19.90;49.60;;;;;;5068945;28;44704;-64
2022/05/09 00:03:44;;;;;;;1.58;1.48;;;19.90;49.70;;;;;;5070106;28;44453;-63
2022/05/09 00:06:13;;;;;;;2.40;1.45;;;19.90;49.70;;;;;;5072978;27;43542;-63
2022/05/09 00:08:44;;;;;;;2.15;1.55;;;19.80;49.60;;;;;;5070147;28;43532;-64
2022/05/09 00:11:12;;;;;;;4.78;1.58;;;19.80;49.60;;;;;;5069955;28;44999;-64
2022/05/09 00:13:42;;;;;;;3.22;1.83;;;19.80;49.60;;;;;;5064471;28;43500;-63
2022/05/09 00:16:10;;;;;;;2.25;1.48;;;19.80;49.60;;;;;;5070266;27;43493;-63
2022/05/09 00:18:38;;;;;;;2.05;1.30;;;19.80;49.70;;;;;;5056796;28;43418;-63
2022/05/09 00:21:05;;;;;;;2.65;1.48;;;19.80;49.70;;;;;;5066314;28;44819;-63
2022/05/09 00:23:33;;;;;;;3.38;1.90;;;19.70;49.60;;;;;;5070222;28;44736;-63
2022/05/09 00:26:03;;;;;;;2.28;1.40;;;19.70;49.60;;;;;;5070191;27;43444;-63
2022/05/09 00:28:32;;;;;;;2.33;1.42;;;19.70;49.70;;;;;;5069739;28;43511;-63
2022/05/09 00:31:05;;;;;;;2.55;1.52;;;19.70;49.70;;;;;;5066674;28;44677;-64
2022/05/09 00:33:32;;;;;;;1.25;1.15;;;19.70;49.70;;;;;;5072416;28;43526;-63
2022/05/09 00:36:00;;;;;;;1.58;1.20;;;19.70;49.70;;;;;;5068815;28;43609;-63
2022/05/09 00:38:28;;;;;;;1.20;1.05;;;19.70;49.70;;;;;;5067926;28;43415;-64
2022/05/09 00:43:41;;;;;;;2.53;1.60;;;19.70;49.70;;;;;;5068937;28;43395;-63
2022/05/09 00:46:09;;;;;;;3.22;1.60;;;19.60;49.70;;;;;;5067508;28;43516;-63
2022/05/09 00:48:37;;;;;;;2.08;1.40;;;19.60;49.70;;;;;;5068624;28;43600;-63
2022/05/09 00:51:07;;;;;;;1.73;1.08;;;19.60;49.70;;;;;;5071108;28;43807;-63
2022/05/09 00:53:37;;;;;;;1.67;1.40;;;19.50;49.70;;;;;;5068693;28;43505;-63
2022/05/09 00:56:10;;;;;;;2.25;1.60;;;19.60;49.70;;;;;;5067801;28;43605;-63
2022/05/09 00:58:50;;;;;;;1.95;1.55;;;19.60;49.70;;;;;;5062911;28;43496;-63
2022/05/09 01:01:18;;;;;;;1.85;1.50;;;19.60;49.70;;;;;;5068578;28;44185;-63
2022/05/09 01:04:11;;;;;;;1.58;1.42;;;19.60;49.80;;;;;;5068922;28;43455;-63
2022/05/09 01:06:39;;;;;;;2.10;1.70;;;19.50;49.70;;;;;;5067922;28;43552;-63
2022/05/09 01:09:07;;;;;;;2.00;1.55;;;19.50;49.70;;;;;;5063839;28;43468;-63
2022/05/09 01:11:37;;;;;;;2.72;1.80;;;19.50;49.80;;;;;;5068782;28;45878;-63
2022/05/09 01:14:17;;;;;;;1.95;1.55;;;19.50;49.80;;;;;;5083475;27;43569;-63
2022/05/09 01:16:47;;;;;;;1.98;1.40;;;19.40;49.70;;;;;;5069444;28;43568;-63
2022/05/09 01:19:32;;;;;;;2.20;1.40;;;19.40;49.80;;;;;;5068592;28;43510;-63
2022/05/09 01:22:00;;;;;;;2.15;1.33;;;19.40;49.80;;;;;;5062813;28;45157;-64
2022/05/09 01:24:29;;;;;;;1.90;1.55;;;19.40;49.80;;;;;;5069337;28;43415;-63
2022/05/09 01:26:57;;;;;;;2.33;1.55;;;19.40;49.80;;;;;;5068485;28;43452;-63
2022/05/09 01:29:29;;;;;;;2.95;1.65;;;19.40;49.80;;;;;;5068752;28;43514;-63
2022/05/09 01:31:57;;;;;;;2.20;1.60;;;19.40;49.80;;;;;;5068626;28;44802;-63
2022/05/09 01:34:27;;;;;;;2.83;1.40;;;19.40;49.80;;;;;;5070303;28;43552;-63
2022/05/09 01:37:01;;;;;;;1.73;1.50;;;19.40;49.90;;;;;;5069001;28;44007;-63
2022/05/09 01:39:30;;;;;;;1.92;1.20;;;19.40;49.80;;;;;;5068706;28;43445;-63
2022/05/09 01:42:05;;;;;;;2.70;1.42;;;19.30;49.80;;;;;;5068405;28;45807;-64
2022/05/09 01:44:33;;;;;;;2.20;1.38;;;19.30;49.70;;;;;;5067764;28;43525;-63
2022/05/09 01:49:48;;;;;;;2.50;1.30;;;19.30;49.80;;;;;;5065200;28;43442;-63
2022/05/09 01:52:18;;;;;;;2.33;1.58;;;19.30;49.80;;;;;;5062829;28;43780;-63
2022/05/09 01:54:45;;;;;;;3.67;1.60;;;19.30;49.80;;;;;;5067886;28;43441;-63
2022/05/09 01:57:13;;;;;;;1.92;1.23;;;19.30;49.80;;;;;;5063198;28;43404;-63
2022/05/09 01:59:42;;;;;;;1.40;1.30;;;19.20;49.70;;;;;;5063865;28;43430;-63
2022/05/09 02:02:18;;;;;;;1.73;1.10;;;19.20;49.70;;;;;;5069005;27;43819;-64
2022/05/09 02:04:48;;;;;;;1.50;1.25;;;19.20;49.80;;;;;;5071990;28;43407;-63
2022/05/09 02:07:19;;;;;;;3.42;1.50;;;19.20;49.80;;;;;;5067847;28;43506;-64
2022/05/09 02:09:47;;;;;;;;;;;19.20;49.80;;;;;;5069777;28;43471;-63
2022/05/09 02:12:17;;;;;;;1.13;1.10;;;19.20;49.80;;;;;;5066669;28;43991;-63
2022/05/09 02:14:45;;;;;;;1.75;1.48;;;19.10;49.80;;;;;;5067240;28;43566;-64
2022/05/09 02:17:13;;;;;;;1.42;1.30;;;19.10;49.80;;;;;;5046317;28;43427;-63
2022/05/09 02:19:41;;;;;;;2.00;1.33;;;19.10;49.80;;;;;;5069137;28;43545;-63
2022/05/09 02:22:10;;;;;;;1.45;1.20;;;19.10;49.80;;;;;;5059839;28;43795;-63
2022/05/09 02:24:41;;;;;;;2.28;1.45;;;19.10;49.70;;;;;;5064428;28;43702;-63
2022/05/09 02:27:11;;;;;;;1.98;1.40;;;19.10;49.70;;;;;;5061764;28;43470;-63
2022/05/09 02:29:42;;;;;;;2.13;1.33;;;19.10;49.80;;;;;;5068234;27;43465;-63
2022/05/09 02:32:11;;;;;;;2.20;1.55;;;19.10;49.80;;;;;;5066943;28;44927;-64
2022/05/09 02:34:39;;;;;;;2.50;1.50;;;19.10;49.80;;;;;;5067812;28;43750;-63
2022/05/09 02:37:06;;;;;;;2.40;1.55;;;19.10;49.80;;;;;;5068583;28;43410;-63
2022/05/09 02:39:34;;;;;;;2.83;1.40;;;19.00;49.70;;;;;;5068828;27;43455;-63
2022/05/09 02:42:02;;;;;;;1.13;1.02;;;19.00;49.80;;;;;;5060398;28;44680;-64
2022/05/09 02:44:36;;;;;;;1.63;1.38;;;19.00;49.80;;;;;;5056199;28;43518;-64
2022/05/09 02:47:04;;;;;;;2.22;1.60;;;19.00;49.70;;;;;;5066864;28;43431;-63
2022/05/09 02:49:32;;;;;;;1.95;1.40;;;19.00;49.70;;;;;;5061969;28;43562;-63
2022/05/09 02:52:01;;;;;;;1.65;1.10;;;19.00;49.80;;;;;;5062114;28;43820;-63
2022/05/09 02:54:28;;;;;;;1.42;1.20;;;19.00;49.80;;;;;;5067570;28;43949;-62
2022/05/09 02:56:56;;;;;;;1.55;1.27;;;19.00;49.80;;;;;;5068001;28;43522;-63
2022/05/09 02:59:28;;;;;;;1.50;1.27;;;19.00;49.80;;;;;;5068289;28;43593;-63
2022/05/09 03:01:57;;;;;;;2.72;1.45;;;18.90;49.80;;;;;;5067249;28;44687;-63
2022/05/09 03:04:39;;;;;;;1.73;1.23;;;18.90;49.70;;;;;;5067068;28;43522;-63
2022/05/09 03:07:14;;;;;;;2.25;1.50;;;18.90;49.80;;;;;;5065270;28;43522;-63
2022/05/09 03:09:43;;;;;;;1.23;1.13;;;18.90;49.80;;;;;;5067526;28;43418;-63
2022/05/09 03:12:12;;;;;;;1.23;1.13;;;18.90;49.80;;;;;;5067282;28;43798;-63
2022/05/09 03:14:40;;;;;;;1.33;1.00;;;18.90;49.80;;;;;;5068622;28;43717;-63
2022/05/09 03:17:08;;;;;;;1.88;1.20;;;18.90;49.80;;;;;;5066430;28;43511;-63
2022/05/09 03:19:36;;;;;;;1.83;1.13;;;18.90;49.90;;;;;;5067512;28;43437;-63
2022/05/09 03:22:04;;;;;;;1.20;1.02;;;18.80;49.80;;;;;;5068025;28;44684;-63
2022/05/09 03:24:32;;;;;;;1.25;1.10;;;18.80;49.80;;;;;;5071945;28;43485;-63
2022/05/09 03:27:02;;;;;;;1.95;1.15;;;18.80;49.70;;;;;;5066614;28;43488;-63
2022/05/09 03:29:30;;;;;;;1.42;1.15;;;18.80;49.80;;;;;;5067325;28;43474;-63
2022/05/09 03:31:58;;;;;;;1.27;1.05;;;18.80;49.80;;;;;;5070723;28;44303;-63
2022/05/09 03:34:25;;;;;;;1.92;1.17;;;18.80;49.80;;;;;;5070773;28;44084;-63
2022/05/09 03:36:54;;;;;;;2.10;1.40;;;18.80;50.50;;;;;;5070779;28;43510;-63
2022/05/09 03:39:21;;;;;;;1.25;1.05;;;18.70;49.80;;;;;;5070400;28;43455;-63
2022/05/09 03:41:50;;;;;;;1.23;0.95;;;18.80;49.90;;;;;;5069604;28;43806;-63
2022/05/09 03:44:18;;;;;;;1.27;1.08;;;18.80;49.80;;;;;;5069355;28;43712;-63
2022/05/09 03:46:45;;;;;;;1.38;1.00;;;18.70;49.80;;;;;;5069585;28;43420;-63
2022/05/09 03:49:14;;;;;;;1.58;1.27;;;18.70;49.80;;;;;;5067326;28;43692;-63
2022/05/09 03:51:41;;;;;;;1.40;0.98;;;18.70;49.80;;;;;;5069158;28;43657;-64
2022/05/09 03:54:09;;;;;;;1.38;1.13;;;18.70;49.90;;;;;;5067833;28;43638;-63
2022/05/09 03:56:36;;;;;;;2.67;1.20;;;18.70;49.80;;;;;;5069015;28;43588;-63
2022/05/09 03:59:04;;;;;;;1.70;1.30;;;18.70;49.80;;;;;;5070278;28;43499;-63
2022/05/09 04:01:31;;;;;;;1.40;1.30;;;18.70;49.90;;;;;;5068976;28;44774;-63
2022/05/09 04:03:59;;;;;;;1.30;1.20;;;18.70;49.90;;;;;;5072751;28;43364;-63
2022/05/09 04:06:27;;;;;;;2.08;1.42;;;18.60;49.80;;;;;;5069744;28;43434;-63
2022/05/09 04:08:55;;;;;;;1.40;1.23;;;18.60;49.80;;;;;;5070217;28;43409;-63
2022/05/09 04:11:23;;;;;;;1.52;1.30;;;18.60;49.80;;;;;;5068031;28;44710;-63
2022/05/09 04:13:51;;;;;;;2.35;1.35;;;18.60;49.70;;;;;;5063241;28;44548;-63
2022/05/09 04:19:04;;;;;;;2.80;1.25;;;18.60;49.80;;;;;;5069127;28;43521;-63
2022/05/09 04:21:32;;;;;;;2.10;1.20;;;18.60;49.80;;;;;;5069938;28;43632;-63
2022/05/09 04:24:00;;;;;;;1.48;1.30;;;18.50;49.70;;;;;;5070423;28;43628;-63
2022/05/09 04:26:31;;;;;;;1.95;1.30;;;18.50;49.70;;;;;;5068166;28;43415;-63
2022/05/09 04:28:59;;;;;;;1.95;1.40;;;18.50;49.70;;;;;;5069698;28;43408;-63
2022/05/09 04:31:28;;;;;;;1.33;1.13;;;18.50;49.70;;;;;;5069554;28;43792;-63
2022/05/09 04:33:58;;;;;;;1.23;1.17;;;18.50;49.70;;;;;;5069317;28;43978;-63
2022/05/09 04:36:27;;;;;;;1.77;1.20;;;18.50;49.70;;;;;;5069312;28;43376;-63
2022/05/09 04:38:54;;;;;;;1.35;1.25;;;18.50;49.70;;;;;;5069601;28;43578;-63
2022/05/09 04:41:22;;;;;;;1.35;1.20;;;18.50;49.80;;;;;;5066481;28;43781;-63
2022/05/09 04:43:49;;;;;;;1.63;1.35;;;18.50;49.80;;;;;;5067310;28;43486;-63
2022/05/09 04:46:17;;;;;;;1.73;1.20;;;18.40;50.30;;;;;;5069443;28;43488;-63
2022/05/09 04:48:46;;;;;;;1.77;1.30;;;18.40;49.70;;;;;;5066674;28;43592;-63
2022/05/09 04:51:15;;;;;;;1.20;1.10;;;18.40;49.70;;;;;;5067032;28;44049;-62
2022/05/09 04:53:43;;;;;;;1.38;1.20;;;18.40;49.70;;;;;;5064589;28;43494;-62
2022/05/09 04:56:12;;;;;;;1.40;1.20;;;18.40;49.70;;;;;;5068913;28;43457;-62
2022/05/09 04:58:39;;;;;;;1.50;1.38;;;18.40;49.70;;;;;;5066195;28;43933;-62
2022/05/09 05:01:07;;;;;;;2.05;1.20;;;18.40;49.70;;;;;;5071679;27;43827;-62
2022/05/09 05:03:34;;;;;;;1.30;1.20;;;18.40;49.70;;;;;;5084670;27;44175;-63
2022/05/09 05:06:03;;;;;;;1.95;1.15;;;18.40;49.70;;;;;;5067478;28;43475;-62
2022/05/09 05:08:33;;;;;;;1.42;1.10;;;18.40;49.80;;;;;;5069420;28;44153;-62
2022/05/09 05:11:01;;;;;;;1.45;1.20;;;18.30;49.80;;;;;;5070802;28;44679;-62
2022/05/09 05:13:33;;;;;;;2.03;1.08;;;18.40;49.80;;;;;;5068342;28;43426;-62
2022/05/09 05:16:00;;;;;;;1.50;1.20;;;18.30;49.80;;;;;;5063268;28;43532;-62
2022/05/09 05:18:30;;;;;;;2.65;1.30;;;18.30;49.90;;;;;;5070455;28;43483;-62
2022/05/09 05:20:57;;;;;;;1.30;1.20;;;18.30;49.90;;;;;;5076188;28;43863;-62
2022/05/09 05:23:25;;;;;;;1.40;1.27;;;18.30;49.80;;;;;;5063854;28;43772;-61
2022/05/09 05:25:52;;;;;;;1.20;1.10;;;18.30;49.80;;;;;;5062641;28;43403;-62
2022/05/09 05:28:20;;;;;;;1.38;1.10;;;18.30;49.80;;;;;;5070462;28;43467;-62
2022/05/09 05:30:49;;;;;;;1.60;1.35;;;18.30;50.00;;;;;;5069851;27;44727;-62
2022/05/09 05:33:16;;;;;;;1.38;1.23;;;18.30;50.00;;;;;;5066997;28;43993;-62
2022/05/09 05:35:44;;;;;;;1.48;1.10;;;18.30;50.10;;;;;;5068341;28;43489;-62
2022/05/09 05:38:11;;;;;;;1.52;1.40;;;18.20;50.00;;;;;;5065622;28;43458;-62
2022/05/09 05:40:39;;;;;;;0.95;0.95;;;18.30;50.10;;;;;;5069005;27;44930;-63
2022/05/09 05:43:14;;;;;;;1.35;1.20;;;18.30;50.10;;;;;;5066357;28;43440;-62
2022/05/09 05:45:46;;;;;;;1.20;1.10;;;18.20;50.10;;;;;;5066466;28;43512;-62
2022/05/09 05:48:14;;;;;;;1.65;1.25;;;18.20;50.10;;;;;;5065674;28;43559;-62
2022/05/09 05:50:41;;;;;;;1.20;1.02;;;18.20;50.10;;;;;;5067982;28;43819;-63
2022/05/09 05:53:09;;;;;;;1.50;1.20;;;18.30;50.30;;;;;;5065695;28;43793;-61
2022/05/09 05:55:36;;;;;;;1.42;1.30;;;18.20;50.10;;;;;;5076763;27;43414;-62
2022/05/09 05:58:04;;;;;;;1.92;1.38;;;18.20;50.10;;;;;;5064674;28;43543;-62
2022/05/09 06:00:31;;;;;;;1.20;1.10;;;18.20;50.10;;;;;;5072504;27;44732;-62
2022/05/09 06:02:58;;;;;;;2.10;1.40;;;18.20;50.90;;;;;;5064440;28;43955;-62
2022/05/09 06:05:29;;;;;;;2.35;1.13;;;18.20;50.30;;;;;;5067658;28;43383;-62
2022/05/09 06:07:57;;;;;;;1.60;1.40;;;18.20;50.20;;;;;;5061036;28;43537;-62
2022/05/09 06:10:26;;;;;;;1.20;1.10;;;18.20;50.10;;;;;;5064577;28;43810;-63
2022/05/09 06:12:54;;;;;;;1.95;1.48;;;18.20;50.00;;;;;;5082361;27;43574;-62
2022/05/09 06:15:24;;;;;;;1.38;1.27;;;18.30;50.00;;;;;;5068694;28;43510;-62
2022/05/09 06:17:53;;;;;;;1.73;1.20;;;18.20;50.00;;;;;;5068630;28;43580;-62
2022/05/09 06:20:22;;;;;;;1.63;1.33;;;18.20;50.10;;;;;;5065543;28;43892;-62
2022/05/09 06:22:49;;;;;;;1.92;1.58;;;18.20;50.20;;;;;;5067963;28;43406;-62
2022/05/09 06:25:19;;;;;;;2.70;2.50;;;18.20;50.30;;;;;;5068822;28;43997;-63
2022/05/09 06:27:48;;;;;;;2.83;2.00;;;18.20;50.30;;;;;;5068349;28;43500;-62
2022/05/09 06:30:18;;;;;;;1.92;1.75;;;18.20;50.20;;;;;;5064928;28;44957;-63
2022/05/09 06:32:46;;;;;;;3.00;2.17;;;18.30;50.10;;;;;;5066580;28;45612;-63
2022/05/09 06:35:20;;;;;;;2.10;1.90;;;18.30;50.10;;;;;;5069744;28;43916;-62
2022/05/09 06:38:16;;;;;;;4.65;2.15;;;18.30;50.10;;;;;;5066485;27;43511;-63
2022/05/09 06:40:44;;;;;;;2.40;2.15;;;18.40;50.40;;;;;;5063508;27;44048;-62
2022/05/09 06:43:12;;;;;;;3.60;2.13;;;18.50;50.10;;;;;;5070200;28;43704;-62
2022/05/09 06:45:41;;;;;;;2.75;1.80;;;18.50;50.00;;;;;;5073345;27;43602;-62
2022/05/09 06:48:10;;;;;;;2.05;1.80;;;18.60;50.00;;;;;;5066284;28;43563;-62
2022/05/09 06:50:39;;;;;;;2.00;1.80;;;18.80;50.00;;;;;;5069836;28;43813;-62
2022/05/09 06:53:08;;;;;;;2.08;1.60;;;18.90;49.90;;;;;;5066870;28;43468;-62
2022/05/09 06:55:47;;;;;;;3.55;1.70;;;19.00;49.90;;;;;;5065471;28;43543;-62
2022/05/09 06:58:21;;;;;;;2.53;2.05;;;19.10;49.70;;;;;;5064644;28;43518;-63
2022/05/09 07:00:50;;;;;;;2.72;2.08;;;19.20;49.60;;;;;;5068023;28;44977;-62
2022/05/09 07:03:18;;;;;;;1.90;1.70;;;19.20;49.60;;;;;;5067629;28;44085;-62
2022/05/09 07:05:48;;;;;;;3.60;1.60;;;19.30;49.40;;;;;;5065578;28;43420;-62
2022/05/09 07:08:16;;;;;;;1.80;1.70;;;19.30;49.40;;;;;;5063708;28;43560;-64
2022/05/09 07:10:46;;;;;;;;;;;19.40;49.40;;;;;;5067274;28;43831;-64
2022/05/09 07:13:34;;;;;;;3.40;2.22;;;19.40;49.10;;;;;;5066468;28;43521;-63
2022/05/09 07:16:04;;;;;;;3.55;2.00;;;19.50;49.40;;;;;;5065730;28;43485;-63
2022/05/09 07:18:33;;;;;;;3.90;2.10;;;19.60;49.40;;;;;;5069107;28;43969;-63
2022/05/09 07:21:01;;;;;;;3.50;2.05;;;19.70;49.40;;;;;;5063656;28;44088;-64
2022/05/09 07:23:28;;;;;;;2.80;1.98;;;19.70;49.30;;;;;;5067019;28;43512;-63
2022/05/09 07:25:56;;;;;;;3.10;1.80;;;19.80;49.30;;;;;;5059677;28;43465;-63
2022/05/09 07:28:26;;;;;;;1.77;1.67;;;19.90;49.10;;;;;;5068452;28;43467;-62
2022/05/09 07:30:55;;;;;;;2.27;1.60;;;19.90;49.70;;;;;;5067173;28;43922;-61
2022/05/09 07:33:22;;;;;;;2.75;1.80;;;20.00;49.10;;;;;;5066449;28;43632;-63
2022/05/09 07:35:50;;;;;;;2.20;1.60;;;20.10;49.10;;;;;;5064054;28;43573;-63
2022/05/09 07:38:17;;;;;;;3.88;1.92;;;20.10;49.00;;;;;;5069347;28;43551;-63
2022/05/09 07:40:47;;;;;;;1.73;1.55;;;20.20;48.90;;;;;;5067148;28;44655;-63
2022/05/09 07:43:18;;;;;;;3.00;1.65;;;20.30;48.80;;;;;;5064709;28;43373;-63
2022/05/09 07:45:47;;;;;;;3.22;1.85;;;20.40;48.80;;;;;;5065404;28;43430;-61
2022/05/09 07:48:16;;;;;;;4.88;1.92;;;20.50;48.80;;;;;;5060318;28;43557;-60
2022/05/09 07:50:43;;;;;;;2.65;1.65;;;20.60;49.30;;;;;;5068509;28;45225;-61
2022/05/09 07:53:20;;;;;;;5.85;1.80;;;20.70;49.50;;;;;;5064086;28;43929;-60
2022/05/09 07:55:48;;;;;;;2.17;1.75;;;20.80;49.00;;;;;;5065346;28;43513;-60
2022/05/09 07:58:18;;;;;;;3.65;1.45;;;20.90;49.00;;;;;;5067747;27;43475;-59
2022/05/09 08:00:46;;;;;;;6.07;1.70;;;21.10;49.00;;;;;;5066454;28;43851;-59
2022/05/09 08:03:17;;;;;;;3.05;1.63;;;21.20;48.70;;;;;;5063427;28;43857;-60
2022/05/09 08:05:46;;;;;;;3.60;1.60;;;21.30;48.60;;;;;;5068727;28;43489;-61
2022/05/09 08:08:14;;;;;;;4.75;1.90;;;21.30;48.40;;;;;;5065560;28;43411;-60
2022/05/09 08:10:43;;;;;;;4.70;1.85;;;21.50;48.50;;;;;;5068888;28;45089;-60
2022/05/09 08:13:13;;;;;;;3.17;1.33;;;21.70;48.50;;;;;;5065888;28;43402;-60
2022/05/09 08:15:44;;;;;;;3.28;1.63;;;21.90;48.30;;;;;;5076675;28;43696;-61
2022/05/09 08:18:11;;;;;;;2.03;1.70;;;22.00;47.90;;;;;;5066901;27;43433;-60
2022/05/09 08:20:42;;;;;;;3.67;1.60;;;22.30;47.80;;;;;;5068796;28;43803;-61
2022/05/09 08:23:13;;;;;;;4.07;1.85;;;22.50;47.40;;;;;;5069580;28;43643;-61
2022/05/09 08:25:43;;;;;;;2.60;1.70;;;22.70;47.20;;;;;;5072119;27;44004;-60
2022/05/09 08:28:11;;;;;;;4.35;1.83;;;22.80;46.90;;;;;;5060747;28;43553;-61
2022/05/09 08:30:39;;;;;;;3.08;1.70;;;22.90;46.60;;;;;;5067981;28;43801;-62
2022/05/09 08:33:10;;;;;;;4.00;1.60;;;23.00;46.50;;;;;;5070163;28;43693;-61
2022/05/09 08:35:38;;;;;;;4.28;1.70;;;23.00;46.40;;;;;;5070648;27;43462;-60
2022/05/09 08:38:05;;;;;;;3.05;1.60;;;23.10;46.30;;;;;;5069055;28;43465;-60
2022/05/09 08:40:35;;;;;;;2.08;1.75;;;23.10;46.30;;;;;;5080475;27;43810;-61
2022/05/09 08:43:33;;;;;;;2.65;1.50;;;23.10;46.30;;;;;;5071202;28;43476;-61
2022/05/09 08:46:36;;;;;;;3.72;1.70;;;23.10;46.20;;;;;;5068007;28;43522;-61
2022/05/09 08:49:39;;;;;;;4.00;1.85;;;23.00;46.30;;;;;;5070076;28;43441;-61
2022/05/09 08:52:31;;;;;;;2.03;1.33;;;22.90;46.40;;;;;;5079959;27;43811;-61
2022/05/09 08:55:05;;;;;;;3.20;1.60;;;22.90;46.50;;;;;;5066539;28;43450;-62
2022/05/09 08:57:42;;;;;;;1.50;1.40;;;22.90;46.60;;;;;;5074787;27;43468;-62
2022/05/09 09:00:18;;;;;;;2.40;1.23;;;22.80;46.60;;;;;;5068032;28;43423;-61
2022/05/09 09:03:07;;;;;;;1.40;1.27;;;22.80;46.70;;;;;;5068565;28;44392;-61
2022/05/09 09:05:40;;;;;;;2.40;1.40;;;22.80;46.80;;;;;;5064372;28;43391;-60
2022/05/09 09:08:37;;;;;;;2.55;1.30;;;22.70;46.80;;;;;;5068429;28;44038;-61
2022/05/09 09:11:11;;;;;;;2.13;1.60;;;22.70;46.90;;;;;;5068967;28;43600;-61
2022/05/09 09:13:41;;;;;;;3.15;1.58;;;22.70;47.00;;;;;;5068665;28;44790;-60
2022/05/09 09:16:27;;;;;;;2.63;1.73;;;22.60;47.10;;;;;;5068182;28;43699;-60
2022/05/09 09:19:18;;;;;;;3.50;1.80;;;22.60;47.20;;;;;;5068521;28;43407;-61
2022/05/09 09:22:08;;;;;;;2.35;1.55;;;22.50;47.20;;;;;;5070802;28;43478;-61
2022/05/09 09:24:46;;;;;;;3.70;1.90;;;22.50;47.40;;;;;;5067184;28;44683;-62
2022/05/09 09:27:28;;;;;;;4.28;1.50;;;22.40;47.40;;;;;;5055354;28;43982;-61
2022/05/09 09:29:59;;;;;;;3.90;1.95;;;22.40;47.80;;;;;;5068602;28;43491;-61
2022/05/09 09:32:27;;;;;;;4.78;2.22;;;22.40;47.60;;;;;;5065926;28;43483;-61
2022/05/09 09:35:03;;;;;;;3.67;1.85;;;22.40;47.70;;;;;;5067806;28;43843;-61
2022/05/09 09:37:33;;;;;;;4.35;2.40;;;22.40;47.80;;;;;;5065427;28;43421;-61
2022/05/09 09:40:02;;;;;;;3.53;2.30;;;22.30;47.80;;;;;;5069640;28;43498;-61
2022/05/09 09:42:30;;;;;;;6.95;2.67;;;22.30;47.90;;;;;;5061309;27;43647;-62
2022/05/09 09:45:00;;;;;;;5.32;2.63;;;22.20;47.90;;;;;;5067887;28;45285;-62
2022/05/09 09:47:29;;;;;;;5.78;2.75;;;22.20;48.00;;;;;;5067926;28;43952;-62
2022/05/09 09:50:23;;;;;;;7.22;3.20;;;22.20;48.10;;;;;;5068663;28;43486;-61
2022/05/09 09:52:56;;;;;;;6.15;2.80;;;22.20;48.10;;;;;;5066095;28;43548;-61
2022/05/09 09:55:36;;;;;;;4.93;2.90;;;22.20;48.10;;;;;;5069000;28;44972;-61
2022/05/09 09:58:26;;;;;;;6.03;2.95;;;22.20;48.20;;;;;;5066236;28;43419;-62
2022/05/09 10:01:14;;;;;;;7.57;3.15;;;22.10;48.30;;;;;;5059327;28;43446;-61
2022/05/09 10:03:45;;;;;;;6.82;3.00;;;22.10;48.30;;;;;;5068083;28;43448;-61
2022/05/09 10:06:17;;;;;;;;;;;22.10;48.40;;;;;;5068160;28;43778;-62
2022/05/09 10:08:47;;;;;;;7.07;2.95;;;22.00;48.40;;;;;;5067567;28;43762;-62
2022/05/09 10:11:20;;;;;;;9.02;3.30;;;22.00;48.50;;;;;;5067979;28;43971;-61
2022/05/09 10:13:54;;;;;;;6.60;2.90;;;22.00;48.60;;;;;;5065429;28;43542;-61
2022/05/09 10:16:30;;;;;;;6.38;2.92;;;22.00;48.60;;;;;;5059471;28;44698;-61
2022/05/09 10:19:00;;;;;;;6.53;3.20;;;22.00;48.60;;;;;;5059816;28;43449;-62
2022/05/09 10:24:49;;;;;;;6.97;3.00;;;21.90;48.60;;;;;;5059152;28;43462;-61
2022/05/09 10:27:30;;;;;;;5.35;2.60;;;21.90;48.40;;;;;;5069264;28;43742;-63
2022/05/09 10:29:57;;;;;;;6.95;3.00;;;21.90;48.60;;;;;;5066268;28;44317;-62
2022/05/09 10:32:38;;;;;;;5.47;2.90;;;21.90;48.60;;;;;;5064493;28;43422;-62
2022/05/09 10:35:35;;;;;;;9.60;3.87;;;21.90;48.60;;;;;;5069099;28;43565;-62
2022/05/09 10:38:06;;;;;;;6.47;2.78;;;21.90;48.70;;;;;;5073863;27;43770;-62
2022/05/09 10:40:46;;;;;;;5.00;2.45;;;21.90;48.70;;;;;;5060772;28;43481;-62
2022/05/09 10:43:22;;;;;;;4.13;2.77;;;21.90;48.80;;;;;;5070265;28;43442;-62
2022/05/09 10:45:50;;;;;;;6.20;2.67;;;21.90;48.70;;;;;;5064631;28;43410;-62
2022/05/09 10:48:18;;;;;;;4.65;2.72;;;21.90;48.70;;;;;;5065857;28;44963;-62
2022/05/09 10:50:51;;;;;;;4.53;2.70;;;21.80;48.70;;;;;;5068123;28;44028;-62
2022/05/09 10:53:27;;;;;;;5.53;2.60;;;21.80;48.80;;;;;;5067387;28;43414;-62
2022/05/09 10:56:03;;;;;;;4.40;2.33;;;21.80;48.90;;;;;;5067196;28;43548;-62
2022/05/09 10:58:52;;;;;;;5.13;2.50;;;21.80;48.90;;;;;;5063014;28;44061;-62
2022/05/09 11:01:30;;;;;;;5.20;3.15;;;21.80;48.90;;;;;;5067493;28;43534;-62
2022/05/09 11:03:58;;;;;;;4.32;2.40;;;21.80;49.00;;;;;;5061939;28;43454;-62
2022/05/09 11:06:32;;;;;;;4.68;2.67;;;21.90;48.80;;;;;;5063555;28;43569;-62
2022/05/09 11:09:21;;;;;;;5.25;2.42;;;21.80;48.80;;;;;;5065806;27;43756;-62
2022/05/09 11:12:04;;;;;;;4.53;2.67;;;21.90;49.00;;;;;;5066053;28;43643;-62
2022/05/09 11:14:49;;;;;;;4.70;2.58;;;21.90;49.00;;;;;;5069045;28;43439;-61
2022/05/09 11:17:26;;;;;;;4.40;2.63;;;21.90;48.90;;;;;;5052542;28;43698;-61
2022/05/09 11:20:38;;;;;;;4.28;2.50;;;21.90;48.80;;;;;;5068641;28;43803;-61
2022/05/09 11:23:21;;;;;;;5.40;2.50;;;21.90;48.70;;;;;;5065774;28;44036;-62
2022/05/09 11:25:59;;;;;;;5.30;2.50;;;21.90;48.80;;;;;;5066165;28;43400;-63
2022/05/09 11:28:26;;;;;;;4.70;2.30;;;21.90;48.80;;;;;;5067026;28;43652;-61
2022/05/09 11:31:16;;;;;;;4.40;2.63;;;21.90;48.70;;;;;;5066962;28;44685;-61
2022/05/09 11:34:03;;;;;;;4.15;2.40;;;22.00;48.70;;;;;;5061322;28;43965;-61
2022/05/09 11:36:33;;;;;;;5.18;2.67;;;22.00;48.70;;;;;;5067137;28;43501;-62
2022/05/09 11:39:27;;;;;;;5.63;2.33;;;22.00;48.80;;;;;;5066451;28;43464;-62
2022/05/09 11:45:26;;;;;;;4.78;2.38;;;22.00;48.80;;;;;;5067611;28;43553;-62
2022/05/09 11:48:18;;;;;;;4.30;2.20;;;22.00;48.90;;;;;;5068019;28;43435;-62
2022/05/09 11:51:14;;;;;;;4.07;1.95;;;22.00;48.90;;;;;;5067894;28;44021;-62
2022/05/09 11:53:46;;;;;;;4.88;2.20;;;22.00;48.90;;;;;;5068945;28;44683;-62
2022/05/09 11:56:14;;;;;;;4.63;2.33;;;22.10;48.90;;;;;;5071539;27;43677;-62
2022/05/09 11:58:43;;;;;;;3.58;2.08;;;22.10;48.90;;;;;;5069636;28;43508;-62
2022/05/09 12:01:11;;;;;;;4.00;2.20;;;22.10;48.70;;;;;;5070881;28;43669;-62
2022/05/09 12:03:42;;;;;;;3.72;2.13;;;22.10;48.70;;;;;;5068704;28;44979;-62
2022/05/09 12:06:27;;;;;;;3.10;2.15;;;22.10;48.70;;;;;;5069343;28;43467;-61
2022/05/09 12:09:08;;;;;;;4.65;2.10;;;22.10;48.80;;;;;;5063593;28;43462;-62
2022/05/09 12:11:47;;;;;;;3.08;2.35;;;22.10;48.80;;;;;;5070200;28;43830;-61
2022/05/09 12:14:38;;;;;;;3.42;2.13;;;22.20;49.20;;;;;;5067071;28;44709;-61
2022/05/09 12:17:32;;;;;;;3.67;2.10;;;22.20;48.90;;;;;;4156001;28;10000869;-62
2022/05/09 12:19:59;;;;;;;3.83;2.25;;;22.30;49.00;;;;;;5046992;28;44711;-61
2022/05/09 12:22:47;;;;;;;3.78;1.88;;;22.30;49.20;;;;;;5051920;28;43531;-61
2022/05/09 12:28:20;;;;;;;2.50;1.80;;;22.40;49.10;;;;;;5042197;28;43591;-61
2022/05/09 12:30:52;;;;;;;3.05;2.00;;;22.40;49.20;;;;;;5041480;28;43808;-61
2022/05/09 12:33:23;;;;;;;2.33;1.75;;;22.40;49.00;;;;;;5044454;28;43785;-61
2022/05/09 12:35:53;;;;;;;3.00;2.08;;;22.40;48.90;;;;;;5046184;28;43464;-62
2022/05/09 12:38:28;;;;;;;2.92;1.80;;;22.40;48.90;;;;;;5046201;28;43984;-62
2022/05/09 12:41:02;;;;;;;3.22;1.88;;;22.40;48.90;;;;;;5044761;28;43793;-61
2022/05/09 12:43:33;;;;;;;3.42;1.98;;;22.50;49.00;;;;;;5044970;28;43926;-62
2022/05/09 12:46:04;;;;;;;2.72;1.92;;;22.50;48.90;;;;;;5044808;28;43489;-62
2022/05/09 12:48:35;;;;;;;;;;;22.50;48.90;;;;;;5038342;28;43432;-62
2022/05/09 12:51:06;;;;;;;2.78;1.95;;;22.50;48.80;;;;;;5044794;28;43778;-62
2022/05/09 12:53:35;;;;;;;3.40;2.08;;;22.50;48.90;;;;;;5043282;28;44025;-61
2022/05/09 12:56:13;;;;;;;2.78;1.65;;;22.60;48.90;;;;;;5044929;28;43430;-61
2022/05/09 12:58:43;;;;;;;2.65;1.80;;;22.50;48.80;;;;;;5044081;28;43519;-61
2022/05/09 13:01:19;;;;;;;3.37;1.87;;;22.60;48.80;;;;;;5046922;28;44884;-62
2022/05/09 13:04:21;;;;;;;2.08;1.70;;;22.60;48.70;;;;;;5038842;28;43475;-62
2022/05/09 13:06:51;;;;;;;2.28;1.58;;;22.60;48.70;;;;;;5040899;28;43430;-62
2022/05/09 13:09:24;;;;;;;2.97;1.83;;;22.60;48.70;;;;;;5045012;28;43451;-62
2022/05/09 13:11:58;;;;;;;4.72;1.80;;;22.70;48.70;;;;;;5045876;28;44067;-61
2022/05/09 13:14:46;;;;;;;2.67;1.95;;;22.70;48.80;;;;;;5044175;28;43493;-61
2022/05/09 13:17:15;;;;;;;2.58;1.38;;;22.70;48.70;;;;;;5034142;28;43632;-61
2022/05/09 13:19:50;;;;;;;3.95;2.10;;;22.70;48.70;;;;;;5046158;28;43462;-62
2022/05/09 13:22:35;;;;;;;2.90;1.80;;;22.80;48.70;;;;;;5047672;28;43779;-62
2022/05/09 13:25:10;;;;;;;2.28;1.63;;;22.80;48.70;;;;;;5043765;28;43411;-62
2022/05/09 13:27:52;;;;;;;2.70;2.00;;;22.80;48.80;;;;;;5038985;28;43524;-62
2022/05/09 13:30:19;;;;;;;4.95;1.90;;;22.80;48.80;;;;;;5045345;28;43531;-62
2022/05/09 13:32:57;;;;;;;1.85;1.50;;;22.80;48.80;;;;;;5045015;28;44647;-61